Time;durP1;ratioP1;P1;durP2;ratioP2;P2;SDS_P1;SDS_P2;PMS_P1;PMS_P2;Temp;Humidity;BMP_temperature;BMP_pressure;BME280_temperature;BME280_humidity;BME280_pressure;Samples;Min_cycle;Max_cycle;Signal;HPM_P1;HPM_P2
2023/12/21 00:00:35;;;;;;;3.25;1.50;;;23.70;45.40;;;;;;6176969;28;81151;-63
2023/12/21 00:03:36;;;;;;;1.85;1.20;;;23.70;45.40;;;;;;6176275;28;80965;-63
2023/12/21 00:06:36;;;;;;;2.83;1.13;;;23.70;45.00;;;;;;6158226;28;80404;-62
2023/12/21 00:09:37;;;;;;;2.30;1.50;;;23.70;45.10;;;;;;6174101;28;83058;-62
2023/12/21 00:12:37;;;;;;;1.75;1.00;;;23.70;45.00;;;;;;6158252;28;80683;-63
2023/12/21 00:15:38;;;;;;;1.80;1.17;;;23.70;45.00;;;;;;6160915;28;82061;-63
2023/12/21 00:18:38;;;;;;;1.88;1.00;;;23.70;45.00;;;;;;6153460;28;82328;-61
2023/12/21 00:21:39;;;;;;;2.13;1.58;;;23.70;45.00;;;;;;6159064;28;80459;-61
2023/12/21 00:24:39;;;;;;;1.23;0.90;;;23.70;44.80;;;;;;6154014;28;80512;-62
2023/12/21 00:27:40;;;;;;;3.28;1.23;;;23.60;45.30;;;;;;6153309;28;80411;-62
2023/12/21 00:30:40;;;;;;;2.15;0.95;;;23.70;45.20;;;;;;6153030;28;80835;-60
2023/12/21 00:33:41;;;;;;;1.80;0.95;;;23.70;45.10;;;;;;6152608;28;80907;-60
2023/12/21 00:36:42;;;;;;;1.50;0.88;;;23.70;44.90;;;;;;6155686;28;80923;-59
2023/12/21 00:39:42;;;;;;;1.83;1.15;;;23.70;45.40;;;;;;6181440;28;80568;-59
2023/12/21 00:42:43;;;;;;;1.95;1.30;;;23.60;45.40;;;;;;6153291;28;80183;-58
2023/12/21 00:45:44;;;;;;;1.98;1.13;;;23.70;46.30;;;;;;6163826;28;80657;-58
2023/12/21 00:48:44;;;;;;;2.17;1.10;;;23.70;45.90;;;;;;6154378;28;80363;-59
2023/12/21 00:51:45;;;;;;;1.92;1.10;;;23.60;46.10;;;;;;6155120;28;82126;-59
2023/12/21 00:54:45;;;;;;;1.33;1.02;;;23.70;46.00;;;;;;6167930;28;81526;-59
2023/12/21 00:57:46;;;;;;;1.65;1.15;;;23.60;46.90;;;;;;6157033;28;80801;-59
2023/12/21 01:00:46;;;;;;;1.50;1.00;;;23.60;46.60;;;;;;6153199;28;81156;-60
2023/12/21 01:03:47;;;;;;;1.52;0.88;;;23.60;45.50;;;;;;6161714;28;81138;-61
2023/12/21 01:06:47;;;;;;;1.45;0.85;;;23.60;46.30;;;;;;6150031;28;81187;-60
2023/12/21 01:09:48;;;;;;;1.92;1.15;;;23.60;45.60;;;;;;6159948;28;82673;-59
2023/12/21 01:12:48;;;;;;;3.20;1.10;;;23.60;46.30;;;;;;6175730;28;80489;-60
2023/12/21 01:15:49;;;;;;;2.03;1.02;;;23.60;46.30;;;;;;6175209;28;80569;-59
2023/12/21 01:18:49;;;;;;;1.38;0.88;;;23.60;46.70;;;;;;6175230;28;80912;-60
2023/12/21 01:21:50;;;;;;;0.85;0.80;;;23.60;46.70;;;;;;6174845;28;80718;-61
2023/12/21 01:24:50;;;;;;;3.80;1.10;;;23.60;46.10;;;;;;6174740;28;81059;-59
2023/12/21 01:27:51;;;;;;;1.67;0.90;;;23.60;46.30;;;;;;6176389;28;80402;-59
2023/12/21 01:30:51;;;;;;;1.33;0.95;;;23.60;46.90;;;;;;6169810;28;80603;-61
2023/12/21 01:33:52;;;;;;;1.20;0.93;;;23.60;46.40;;;;;;6174808;28;81423;-61
2023/12/21 01:36:52;;;;;;;1.05;0.77;;;23.60;46.90;;;;;;6173985;28;81164;-60
2023/12/21 01:39:53;;;;;;;1.20;0.93;;;23.60;46.00;;;;;;6172823;28;81724;-61
2023/12/21 01:42:53;;;;;;;1.17;0.90;;;23.60;47.70;;;;;;6173340;28;81861;-63
2023/12/21 01:45:54;;;;;;;1.50;0.93;;;23.50;45.80;;;;;;6173791;28;80330;-62
2023/12/21 01:48:54;;;;;;;1.45;0.90;;;23.60;47.50;;;;;;6175069;28;81053;-61
2023/12/21 01:51:55;;;;;;;1.27;0.90;;;23.60;47.20;;;;;;6173372;28;83194;-61
2023/12/21 01:54:55;;;;;;;1.10;0.80;;;23.60;46.70;;;;;;6171769;28;81786;-59
2023/12/21 01:57:56;;;;;;;1.67;1.00;;;23.60;46.70;;;;;;6174374;28;80415;-61
2023/12/21 02:00:56;;;;;;;1.63;0.80;;;23.60;46.10;;;;;;6175417;28;80884;-62
2023/12/21 02:03:57;;;;;;;1.20;0.73;;;23.60;46.20;;;;;;6159277;28;80530;-60
2023/12/21 02:06:57;;;;;;;1.33;0.85;;;23.50;46.50;;;;;;6150611;28;80951;-59
2023/12/21 02:09:58;;;;;;;1.05;0.75;;;23.60;46.00;;;;;;6162504;28;80571;-60
2023/12/21 02:12:58;;;;;;;1.60;0.98;;;23.50;45.90;;;;;;6174394;28;81053;-59
2023/12/21 02:15:59;;;;;;;2.08;1.10;;;23.50;46.20;;;;;;6174944;28;80193;-59
2023/12/21 02:18:59;;;;;;;0.70;0.70;;;23.50;45.80;;;;;;6174610;28;80967;-59
2023/12/21 02:22:00;;;;;;;1.52;0.80;;;23.50;45.70;;;;;;6174488;28;80369;-58
2023/12/21 02:25:00;;;;;;;1.13;1.02;;;23.50;45.40;;;;;;6173516;28;83253;-62
2023/12/21 02:28:01;;;;;;;1.67;0.70;;;23.50;45.20;;;;;;6175325;28;80906;-63
2023/12/21 02:31:01;;;;;;;1.38;0.70;;;23.50;45.10;;;;;;6170451;28;80914;-63
2023/12/21 02:34:02;;;;;;;0.65;0.63;;;23.50;44.80;;;;;;6166372;28;83494;-63
2023/12/21 02:37:02;;;;;;;1.17;0.85;;;23.50;44.70;;;;;;6175686;28;81189;-61
2023/12/21 02:40:03;;;;;;;1.20;0.90;;;23.50;44.70;;;;;;6178269;28;81009;-62
2023/12/21 02:43:03;;;;;;;2.05;0.95;;;23.50;44.90;;;;;;6178839;28;80536;-61
2023/12/21 02:46:04;;;;;;;0.73;0.73;;;23.50;44.80;;;;;;6179300;28;80489;-60
2023/12/21 02:49:04;;;;;;;1.00;0.75;;;23.50;44.70;;;;;;6177872;28;80282;-60
2023/12/21 02:52:05;;;;;;;1.02;0.90;;;23.50;45.90;;;;;;6167536;28;80956;-61
2023/12/21 02:55:05;;;;;;;1.50;0.85;;;23.50;45.50;;;;;;6154156;28;81614;-60
2023/12/21 02:58:06;;;;;;;2.25;0.90;;;23.50;46.80;;;;;;6167581;28;80369;-60
2023/12/21 03:01:06;;;;;;;0.60;0.60;;;23.50;45.80;;;;;;6163714;28;80578;-62
2023/12/21 03:04:07;;;;;;;0.75;0.70;;;23.40;45.90;;;;;;6177874;28;80418;-63
2023/12/21 03:07:07;;;;;;;1.67;0.73;;;23.40;46.20;;;;;;6168132;28;80191;-62
2023/12/21 03:10:08;;;;;;;0.60;0.60;;;23.40;45.60;;;;;;6178189;28;80494;-61
2023/12/21 03:13:08;;;;;;;0.73;0.52;;;23.40;46.40;;;;;;6158585;28;80650;-60
2023/12/21 03:16:09;;;;;;;0.70;0.70;;;23.50;46.30;;;;;;6168981;28;80751;-61
2023/12/21 03:19:09;;;;;;;0.93;0.60;;;23.50;46.30;;;;;;6153566;28;81222;-60
2023/12/21 03:22:10;;;;;;;0.68;0.60;;;23.40;46.60;;;;;;6153890;28;80631;-65
2023/12/21 03:25:11;;;;;;;1.48;0.80;;;23.40;46.20;;;;;;6147640;28;80699;-64
2023/12/21 03:28:14;;;;;;;0.65;0.50;;;23.40;45.90;;;;;;6172831;28;81610;-65
2023/12/21 03:31:14;;;;;;;0.50;0.50;;;23.30;46.40;;;;;;6171616;28;80719;-62
2023/12/21 03:34:15;;;;;;;0.73;0.50;;;23.30;46.50;;;;;;6161502;28;80986;-62
2023/12/21 03:37:15;;;;;;;0.90;0.65;;;23.30;46.30;;;;;;6178404;28;81152;-63
2023/12/21 03:40:18;;;;;;;0.98;0.63;;;23.40;46.10;;;;;;6178137;28;80657;-64
2023/12/21 03:43:18;;;;;;;1.63;0.68;;;23.40;45.30;;;;;;6161954;28;80451;-67
2023/12/21 03:46:19;;;;;;;0.93;0.70;;;23.40;46.00;;;;;;6175647;28;81189;-66
2023/12/21 03:49:19;;;;;;;0.85;0.60;;;23.40;45.20;;;;;;6162812;28;80972;-65
2023/12/21 03:52:20;;;;;;;0.85;0.50;;;23.40;45.90;;;;;;6168818;28;80281;-65
2023/12/21 03:55:20;;;;;;;1.48;0.70;;;23.40;45.90;;;;;;6160612;28;80349;-65
2023/12/21 03:58:21;;;;;;;0.40;0.40;;;23.40;45.60;;;;;;6160630;28;80791;-66
2023/12/21 04:01:21;;;;;;;0.50;0.50;;;23.40;46.30;;;;;;6174580;28;80562;-65
2023/12/21 04:04:22;;;;;;;0.35;0.35;;;23.40;46.30;;;;;;6158279;28;83624;-67
2023/12/21 04:07:22;;;;;;;0.40;0.40;;;23.40;45.90;;;;;;6154499;28;81691;-67
2023/12/21 04:10:23;;;;;;;0.60;0.50;;;23.40;45.70;;;;;;6153518;28;81494;-66
2023/12/21 04:13:23;;;;;;;0.80;0.80;;;23.40;45.90;;;;;;6158244;28;80564;-65
2023/12/21 04:16:23;;;;;;;1.17;0.70;;;23.40;45.60;;;;;;6164998;28;80305;-63
2023/12/21 04:19:24;;;;;;;0.55;0.55;;;23.40;45.00;;;;;;6163432;28;80731;-61
2023/12/21 04:22:24;;;;;;;0.50;0.50;;;23.40;44.60;;;;;;6163810;28;80237;-61
2023/12/21 04:25:25;;;;;;;0.50;0.40;;;23.50;44.60;;;;;;6157384;28;81243;-61
2023/12/21 04:28:25;;;;;;;3.00;0.50;;;23.50;44.50;;;;;;6158126;28;81136;-61
2023/12/21 04:31:26;;;;;;;0.50;0.50;;;23.50;44.40;;;;;;6159771;28;83170;-63
2023/12/21 04:34:26;;;;;;;0.40;0.40;;;23.50;44.50;;;;;;6163026;28;80726;-62
2023/12/21 04:37:27;;;;;;;0.40;0.40;;;23.50;44.60;;;;;;6174904;28;80646;-60
2023/12/21 04:40:27;;;;;;;0.47;0.47;;;23.60;44.60;;;;;;6177146;28;80849;-61
2023/12/21 04:43:28;;;;;;;0.50;0.50;;;23.60;44.70;;;;;;6176001;28;81918;-61
2023/12/21 04:46:28;;;;;;;0.30;0.30;;;23.60;44.60;;;;;;6176436;28;80913;-60
2023/12/21 04:49:29;;;;;;;0.60;0.50;;;23.60;44.60;;;;;;6155729;28;86033;-60
2023/12/21 04:52:29;;;;;;;0.80;0.40;;;23.60;44.40;;;;;;6174232;28;80644;-58
2023/12/21 04:55:30;;;;;;;1.85;0.43;;;23.60;44.30;;;;;;6173267;28;80318;-58
2023/12/21 04:58:30;;;;;;;0.50;0.50;;;23.60;44.50;;;;;;6174264;28;81469;-59
2023/12/21 05:01:31;;;;;;;0.30;0.30;;;23.70;44.70;;;;;;6175544;28;80522;-59
2023/12/21 05:04:31;;;;;;;1.05;0.50;;;23.70;44.70;;;;;;6172826;28;80598;-59
2023/12/21 05:07:32;;;;;;;0.65;0.65;;;23.70;44.70;;;;;;6161021;28;84810;-59
2023/12/21 05:10:32;;;;;;;0.50;0.50;;;23.70;44.70;;;;;;6171071;28;85188;-62
2023/12/21 05:13:33;;;;;;;0.60;0.50;;;23.70;44.70;;;;;;6168440;28;81291;-60
2023/12/21 05:16:33;;;;;;;0.70;0.50;;;23.70;44.60;;;;;;6173136;28;81194;-59
2023/12/21 05:19:34;;;;;;;0.63;0.45;;;23.70;44.50;;;;;;6150325;28;80842;-59
2023/12/21 05:22:34;;;;;;;1.15;0.52;;;23.70;44.60;;;;;;6152325;28;80442;-59
2023/12/21 05:25:35;;;;;;;0.40;0.40;;;23.70;44.80;;;;;;6157763;28;80512;-60
2023/12/21 05:28:38;;;;;;;0.30;0.30;;;23.70;44.20;;;;;;6155297;28;80983;-59
2023/12/21 05:31:38;;;;;;;0.75;0.47;;;23.70;44.10;;;;;;6151408;28;80866;-61
2023/12/21 05:34:39;;;;;;;0.45;0.38;;;23.70;44.20;;;;;;6150247;28;80522;-60
2023/12/21 05:37:40;;;;;;;0.63;0.47;;;23.80;44.20;;;;;;6150172;28;82121;-60
2023/12/21 05:40:41;;;;;;;0.70;0.50;;;23.80;44.20;;;;;;6166151;28;82602;-59
2023/12/21 05:43:41;;;;;;;0.30;0.30;;;23.80;44.20;;;;;;6173800;28;80704;-60
2023/12/21 05:46:42;;;;;;;0.80;0.60;;;23.80;44.20;;;;;;6166869;28;80606;-61
2023/12/21 05:49:43;;;;;;;0.82;0.50;;;23.80;44.60;;;;;;6167964;28;80618;-59
2023/12/21 05:52:44;;;;;;;0.73;0.47;;;23.80;44.80;;;;;;6168396;28;80388;-59
2023/12/21 05:55:44;;;;;;;0.75;0.60;;;23.80;44.50;;;;;;6168308;28;82364;-59
2023/12/21 05:58:45;;;;;;;0.60;0.50;;;23.80;44.40;;;;;;6169261;28;81052;-60
2023/12/21 06:01:45;;;;;;;0.75;0.40;;;23.80;44.10;;;;;;6170863;28;81387;-60
2023/12/21 06:04:46;;;;;;;0.65;0.50;;;23.80;44.00;;;;;;6174173;28;80255;-60
2023/12/21 06:07:46;;;;;;;0.98;0.60;;;23.80;43.90;;;;;;6163802;28;80425;-61
2023/12/21 06:10:47;;;;;;;0.40;0.40;;;23.80;43.80;;;;;;6168399;28;86840;-59
2023/12/21 06:13:47;;;;;;;0.70;0.70;;;23.80;43.60;;;;;;6170931;28;80387;-56
2023/12/21 06:16:48;;;;;;;0.55;0.45;;;23.80;43.50;;;;;;6153688;28;80523;-55
2023/12/21 06:19:49;;;;;;;2.78;0.75;;;23.80;43.60;;;;;;6173718;28;80983;-58
2023/12/21 06:22:50;;;;;;;0.57;0.40;;;23.70;44.00;;;;;;6171459;28;80501;-58
2023/12/21 06:25:51;;;;;;;0.60;0.55;;;23.70;44.00;;;;;;6168932;28;81099;-62
2023/12/21 06:28:51;;;;;;;2.15;0.70;;;23.70;43.90;;;;;;6171370;28;80845;-63
2023/12/21 06:31:52;;;;;;;1.73;0.50;;;23.70;44.20;;;;;;6168994;28;85482;-64
2023/12/21 06:34:52;;;;;;;3.13;0.88;;;23.70;44.60;;;;;;6165855;28;80695;-65
2023/12/21 06:37:53;;;;;;;0.95;0.60;;;23.70;45.10;;;;;;6169468;28;80656;-61
2023/12/21 06:40:53;;;;;;;0.45;0.40;;;23.70;44.50;;;;;;6168752;28;81518;-61
2023/12/21 06:43:54;;;;;;;0.50;0.50;;;23.70;45.10;;;;;;6171584;28;80540;-61
2023/12/21 06:46:56;;;;;;;1.70;0.70;;;23.70;45.10;;;;;;6157112;28;80615;-61
2023/12/21 06:49:56;;;;;;;0.50;0.50;;;23.70;45.40;;;;;;6170623;28;80490;-61
2023/12/21 06:52:57;;;;;;;1.05;1.00;;;23.70;45.50;;;;;;6143916;28;82214;-62
2023/12/21 06:55:57;;;;;;;0.82;0.60;;;23.70;45.70;;;;;;6149182;28;83101;-61
2023/12/21 06:58:58;;;;;;;6.57;0.50;;;23.70;45.70;;;;;;6161594;28;85347;-61
2023/12/21 07:01:58;;;;;;;11.73;1.08;;;23.70;45.80;;;;;;6156841;28;82254;-55
2023/12/21 07:04:59;;;;;;;2.15;0.60;;;23.70;45.70;;;;;;6147047;28;80874;-57
2023/12/21 07:08:00;;;;;;;0.40;0.40;;;23.70;45.60;;;;;;6154386;28;80554;-57
2023/12/21 07:11:00;;;;;;;4.13;0.40;;;23.70;45.50;;;;;;6156046;28;82051;-57
2023/12/21 07:14:01;;;;;;;1.63;0.50;;;23.70;45.80;;;;;;6162044;28;81015;-57
2023/12/21 07:17:01;;;;;;;4.47;0.50;;;23.60;46.10;;;;;;6165803;28;83881;-58
2023/12/21 07:20:02;;;;;;;1.27;0.40;;;23.60;45.90;;;;;;6173372;28;80680;-59
2023/12/21 07:23:02;;;;;;;0.88;0.43;;;23.60;45.20;;;;;;6175834;28;80577;-58
2023/12/21 07:26:03;;;;;;;1.80;0.20;;;23.60;45.20;;;;;;6163623;28;82100;-58
2023/12/21 07:29:04;;;;;;;1.42;0.63;;;23.60;45.50;;;;;;6176598;28;81375;-61
2023/12/21 07:32:04;;;;;;;0.70;0.40;;;23.60;45.30;;;;;;6169397;28;82152;-60
2023/12/21 07:35:04;;;;;;;0.75;0.70;;;23.60;44.90;;;;;;6166071;28;80922;-59
2023/12/21 07:38:05;;;;;;;1.02;0.50;;;23.60;45.30;;;;;;6162259;28;81426;-59
2023/12/21 07:41:05;;;;;;;2.08;0.30;;;23.60;45.20;;;;;;6171221;28;80574;-65
2023/12/21 07:44:06;;;;;;;4.47;0.30;;;23.60;45.50;;;;;;6171318;28;80462;-64
2023/12/21 07:47:07;;;;;;;0.47;0.40;;;23.50;46.90;;;;;;6174687;28;80629;-64
2023/12/21 07:50:07;;;;;;;4.03;0.60;;;23.60;46.80;;;;;;6174653;28;80578;-61
2023/12/21 07:53:07;;;;;;;3.28;0.70;;;23.60;45.60;;;;;;6163110;28;80504;-59
2023/12/21 07:56:09;;;;;;;2.60;0.75;;;23.60;45.50;;;;;;6168163;28;80594;-57
2023/12/21 07:59:09;;;;;;;1.38;0.60;;;23.50;46.30;;;;;;6164967;28;80656;-59
2023/12/21 08:02:10;;;;;;;3.97;0.60;;;23.50;46.50;;;;;;6171242;28;80716;-60
2023/12/21 08:05:11;;;;;;;3.58;0.55;;;23.50;45.80;;;;;;6164335;28;80318;-56
2023/12/21 08:08:12;;;;;;;1.42;0.40;;;23.50;44.90;;;;;;6166964;28;81070;-59
2023/12/21 08:11:13;;;;;;;0.57;0.40;;;23.50;45.00;;;;;;6167698;28;80955;-58
2023/12/21 08:14:13;;;;;;;4.15;0.50;;;23.40;44.70;;;;;;6163363;28;82525;-64
2023/12/21 08:17:14;;;;;;;1.60;0.50;;;23.40;44.70;;;;;;6163300;28;82038;-65
2023/12/21 08:20:15;;;;;;;0.73;0.30;;;23.40;45.40;;;;;;6150747;28;80892;-66
2023/12/21 08:23:16;;;;;;;27.92;1.15;;;23.40;45.00;;;;;;6173647;28;80903;-65
2023/12/21 08:26:16;;;;;;;1.02;0.47;;;23.40;45.10;;;;;;6151742;28;80514;-66
2023/12/21 08:29:16;;;;;;;2.28;0.50;;;23.40;44.80;;;;;;6164152;28;81338;-67
2023/12/21 08:32:18;;;;;;;1.40;0.50;;;23.40;45.20;;;;;;6152516;28;87802;-66
2023/12/21 08:35:18;;;;;;;3.35;0.40;;;23.40;45.20;;;;;;6152539;28;81130;-58
2023/12/21 08:38:20;;;;;;;2.72;0.57;;;23.40;45.40;;;;;;6177183;28;80369;-59
2023/12/21 08:41:24;;;;;;;1.98;0.50;;;23.40;45.90;;;;;;6177213;28;81211;-59
2023/12/21 08:44:25;;;;;;;1.17;0.30;;;23.40;45.10;;;;;;6175672;28;80965;-60
2023/12/21 08:47:26;;;;;;;1.52;0.60;;;23.30;44.90;;;;;;6176284;28;80400;-56
2023/12/21 08:50:27;;;;;;;0.93;0.63;;;23.40;45.00;;;;;;6176043;28;81503;-58
2023/12/21 08:53:27;;;;;;;3.45;0.52;;;23.40;45.80;;;;;;6176206;28;80926;-57
2023/12/21 08:56:28;;;;;;;1.35;0.68;;;23.40;45.10;;;;;;6174324;28;80826;-58
2023/12/21 08:59:28;;;;;;;2.45;0.55;;;23.40;44.80;;;;;;6175530;28;80457;-58
2023/12/21 09:02:29;;;;;;;1.92;0.50;;;23.40;44.90;;;;;;6148275;28;81071;-57
2023/12/21 09:05:29;;;;;;;1.20;0.38;;;23.40;45.20;;;;;;6152926;28;80226;-57
2023/12/21 09:08:30;;;;;;;3.83;0.50;;;23.50;45.00;;;;;;6145380;28;84697;-57
2023/12/21 09:11:30;;;;;;;1.38;0.63;;;23.50;45.10;;;;;;6160002;28;81009;-56
2023/12/21 09:14:31;;;;;;;13.23;0.80;;;23.60;44.70;;;;;;6161756;28;80457;-57
2023/12/21 09:17:32;;;;;;;1.23;0.70;;;23.60;44.60;;;;;;6164197;28;80960;-53
2023/12/21 09:20:32;;;;;;;1.08;0.68;;;23.60;44.50;;;;;;6161497;28;82221;-59
2023/12/21 09:23:32;;;;;;;5.57;0.73;;;23.60;44.40;;;;;;6162032;28;80790;-57
2023/12/21 09:26:33;;;;;;;6.20;0.82;;;23.60;44.50;;;;;;6162830;28;82547;-59
2023/12/21 09:29:33;;;;;;;1.65;0.57;;;23.70;44.20;;;;;;6161920;28;82018;-61
2023/12/21 09:32:34;;;;;;;37.63;21.40;;;23.70;44.10;;;;;;6164736;28;81144;-58
2023/12/21 09:35:34;;;;;;;79.47;44.30;;;23.70;44.30;;;;;;6149767;28;83568;-59
2023/12/21 09:38:35;;;;;;;132.38;71.40;;;23.70;44.30;;;;;;6159759;28;85611;-60
2023/12/21 09:41:35;;;;;;;151.35;77.45;;;23.70;44.30;;;;;;6155876;28;83511;-58
2023/12/21 09:44:37;;;;;;;186.52;101.30;;;23.80;44.70;;;;;;6160075;28;83208;-59
2023/12/21 09:47:37;;;;;;;236.25;117.93;;;23.90;44.40;;;;;;6162238;28;92627;-59
2023/12/21 09:50:38;;;;;;;203.55;100.47;;;23.90;44.30;;;;;;6161141;28;85794;-58
2023/12/21 09:53:38;;;;;;;163.88;85.47;;;24.00;44.30;;;;;;6158858;28;85661;-55
2023/12/21 09:56:38;;;;;;;121.47;62.40;;;24.10;44.30;;;;;;6169869;28;85337;-54
2023/12/21 09:59:39;;;;;;;81.93;42.30;;;24.20;43.70;;;;;;6156861;28;84286;-57
2023/12/21 10:02:39;;;;;;;77.25;39.40;;;24.30;42.20;;;;;;6165537;28;85543;-56
2023/12/21 10:05:40;;;;;;;53.72;26.10;;;24.30;39.70;;;;;;6160104;28;84120;-56
2023/12/21 10:08:41;;;;;;;44.53;22.73;;;24.20;39.90;;;;;;6151371;28;83988;-55
2023/12/21 10:11:42;;;;;;;39.58;21.88;;;24.20;39.40;;;;;;6172558;28;83530;-59
2023/12/21 10:14:43;;;;;;;21.45;12.10;;;24.10;39.00;;;;;;6167467;28;83201;-56
2023/12/21 10:17:44;;;;;;;20.67;10.15;;;24.10;38.30;;;;;;6152232;28;83991;-57
2023/12/21 10:20:44;;;;;;;14.70;7.97;;;24.10;38.40;;;;;;6170480;28;83236;-59
2023/12/21 10:23:45;;;;;;;10.05;6.40;;;24.00;38.00;;;;;;6174140;28;85550;-56
2023/12/21 10:26:45;;;;;;;13.07;5.95;;;24.00;38.60;;;;;;6174769;28;80591;-57
2023/12/21 10:29:46;;;;;;;12.88;6.47;;;24.00;38.60;;;;;;6170483;28;80649;-56
2023/12/21 10:32:46;;;;;;;11.80;6.28;;;23.90;39.00;;;;;;6166575;28;83066;-56
2023/12/21 10:35:47;;;;;;;10.70;5.15;;;24.00;39.90;;;;;;6156760;28;83305;-58
2023/12/21 10:38:47;;;;;;;8.98;5.20;;;23.90;39.80;;;;;;6154467;28;89713;-55
2023/12/21 10:41:47;;;;;;;10.02;5.22;;;23.90;40.10;;;;;;6159504;28;82094;-61
2023/12/21 10:44:48;;;;;;;12.95;5.47;;;24.00;40.50;;;;;;6166643;28;80601;-63
2023/12/21 10:47:49;;;;;;;8.80;4.65;;;23.90;40.30;;;;;;6167059;28;81065;-60
2023/12/21 10:50:49;;;;;;;11.57;5.30;;;24.00;40.60;;;;;;6166085;28;80401;-62
2023/12/21 10:53:50;;;;;;;16.50;4.57;;;24.00;41.00;;;;;;6162908;28;81154;-60
2023/12/21 10:56:51;;;;;;;9.23;4.47;;;24.00;41.00;;;;;;6172709;28;81104;-63
2023/12/21 10:59:51;;;;;;;5.30;3.53;;;24.00;41.00;;;;;;6172509;28;82059;-63
2023/12/21 11:02:52;;;;;;;6.75;3.97;;;24.00;41.30;;;;;;6166869;28;83676;-63
2023/12/21 11:05:52;;;;;;;6.60;3.50;;;23.90;41.40;;;;;;6166246;28;80686;-63
2023/12/21 11:08:53;;;;;;;7.63;3.30;;;23.90;41.60;;;;;;6168458;28;80610;-65
2023/12/21 11:11:57;;;;;;;4.82;3.25;;;23.90;41.60;;;;;;6159404;28;80843;-76
2023/12/21 11:14:57;;;;;;;5.45;3.53;;;24.00;41.50;;;;;;6190022;28;82189;-61
2023/12/21 11:17:58;;;;;;;4.88;2.65;;;23.90;42.10;;;;;;6169101;28;80353;-60
2023/12/21 11:20:58;;;;;;;6.93;3.40;;;23.90;42.80;;;;;;6162668;28;80454;-61
2023/12/21 11:23:59;;;;;;;6.90;2.60;;;23.90;43.10;;;;;;6165700;28;82166;-63
2023/12/21 11:27:01;;;;;;;4.65;3.13;;;23.90;42.90;;;;;;6174424;28;80954;-64
2023/12/21 11:30:02;;;;;;;4.25;2.42;;;23.90;43.00;;;;;;6160503;28;80894;-63
2023/12/21 11:33:02;;;;;;;5.38;2.60;;;23.90;42.80;;;;;;6158992;28;83371;-62
2023/12/21 11:36:03;;;;;;;4.13;2.47;;;23.90;43.00;;;;;;6168394;28;80798;-60
2023/12/21 11:39:03;;;;;;;6.43;3.17;;;23.90;43.20;;;;;;6168875;28;80481;-59
2023/12/21 11:42:06;;;;;;;4.63;2.50;;;23.90;44.00;;;;;;6162235;28;81411;-60
2023/12/21 11:45:09;;;;;;;5.53;2.20;;;23.80;46.10;;;;;;6159957;28;82188;-63
2023/12/21 11:48:09;;;;;;;7.35;2.38;;;23.80;46.20;;;;;;6164223;28;82768;-63
2023/12/21 11:51:10;;;;;;;6.32;2.50;;;23.80;46.30;;;;;;6163823;28;83781;-64
2023/12/21 11:54:11;;;;;;;6.07;2.30;;;23.80;46.20;;;;;;6165742;28;80632;-65
2023/12/21 11:57:11;;;;;;;3.58;2.28;;;23.90;46.20;;;;;;6172592;28;80346;-58
2023/12/21 12:00:12;;;;;;;2.90;2.03;;;23.90;46.00;;;;;;6171596;28;84240;-59
2023/12/21 12:03:12;;;;;;;3.42;1.55;;;23.90;45.90;;;;;;6176187;28;82903;-58
2023/12/21 12:06:13;;;;;;;2.65;1.90;;;23.90;45.80;;;;;;6168677;28;81652;-58
2023/12/21 12:09:15;;;;;;;2.67;1.88;;;23.80;45.70;;;;;;6169896;28;80749;-58
2023/12/21 12:12:16;;;;;;;7.15;1.90;;;23.80;45.30;;;;;;6169637;28;80390;-56
2023/12/21 12:15:16;;;;;;;2.20;1.42;;;23.80;44.80;;;;;;6172638;28;82668;-60
2023/12/21 12:18:17;;;;;;;7.05;1.58;;;23.80;44.90;;;;;;6170230;28;85114;-60
2023/12/21 12:21:17;;;;;;;4.78;1.83;;;23.80;44.60;;;;;;6173360;28;80886;-60
2023/12/21 12:24:18;;;;;;;4.30;1.88;;;23.70;44.40;;;;;;6169659;28;80914;-59
2023/12/21 12:27:18;;;;;;;3.67;1.38;;;23.80;45.30;;;;;;6171543;28;81122;-61
2023/12/21 12:30:19;;;;;;;5.68;1.80;;;23.70;44.70;;;;;;6169843;28;80476;-60
2023/12/21 12:33:19;;;;;;;3.63;1.42;;;23.70;45.00;;;;;;6162928;28;80407;-53
2023/12/21 12:36:20;;;;;;;16.23;2.17;;;23.70;45.00;;;;;;6161717;28;81932;-57
2023/12/21 12:39:20;;;;;;;2.53;1.30;;;23.70;45.30;;;;;;6174290;28;83289;-55
2023/12/21 12:42:21;;;;;;;4.53;1.50;;;23.70;45.20;;;;;;6171756;28;80886;-55
2023/12/21 12:45:21;;;;;;;2.80;1.30;;;23.70;45.80;;;;;;6168015;28;80524;-56
2023/12/21 12:48:22;;;;;;;8.57;1.38;;;23.70;45.20;;;;;;6167251;28;81477;-53
2023/12/21 12:51:23;;;;;;;4.35;1.25;;;23.70;45.30;;;;;;6176179;28;80287;-63
2023/12/21 12:54:23;;;;;;;5.25;1.95;;;23.70;45.90;;;;;;6174200;28;81571;-62
2023/12/21 12:57:24;;;;;;;9.10;5.03;;;23.80;46.80;;;;;;6172594;28;81000;-63
2023/12/21 13:00:24;;;;;;;54.67;32.28;;;23.80;47.80;;;;;;6174534;28;81999;-63
2023/12/21 13:03:25;;;;;;;69.07;41.42;;;23.80;49.00;;;;;;6172953;28;82708;-64
2023/12/21 13:06:25;;;;;;;79.13;48.35;;;23.80;48.20;;;;;;6161571;28;83933;-64
2023/12/21 13:09:26;;;;;;;120.60;77.22;;;23.80;49.00;;;;;;6170488;28;83604;-63
2023/12/21 13:12:27;;;;;;;116.65;75.13;;;23.80;50.70;;;;;;6169674;28;86061;-62
2023/12/21 13:15:27;;;;;;;130.00;86.43;;;23.80;50.20;;;;;;6166946;28;83314;-60
2023/12/21 13:18:28;;;;;;;133.05;88.75;;;23.80;51.20;;;;;;6168608;28;83229;-64
2023/12/21 13:21:28;;;;;;;153.00;102.57;;;23.80;50.80;;;;;;6163779;28;83773;-63
2023/12/21 13:24:29;;;;;;;156.13;107.65;;;23.80;51.60;;;;;;6166360;28;86076;-64
2023/12/21 13:27:29;;;;;;;161.07;107.63;;;23.80;52.40;;;;;;6162245;28;86415;-58
2023/12/21 13:30:30;;;;;;;145.38;98.93;;;23.80;53.30;;;;;;6158231;28;85772;-58
2023/12/21 13:33:30;;;;;;;147.00;93.25;;;23.90;53.70;;;;;;6151565;28;86362;-50
2023/12/21 13:36:31;;;;;;;131.48;89.20;;;23.80;53.80;;;;;;6168818;28;82764;-56
2023/12/21 13:39:31;;;;;;;118.65;81.60;;;23.90;53.40;;;;;;6163206;28;85372;-53
2023/12/21 13:42:32;;;;;;;120.07;79.28;;;23.90;52.60;;;;;;6168207;28;83084;-53
2023/12/21 13:45:32;;;;;;;105.10;70.55;;;23.90;52.40;;;;;;6157932;28;85208;-63
2023/12/21 13:48:33;;;;;;;95.93;64.60;;;23.90;51.50;;;;;;6163062;28;83833;-63
2023/12/21 13:51:35;;;;;;;98.25;65.95;;;23.80;51.50;;;;;;6161467;28;85602;-62
2023/12/21 13:54:37;;;;;;;90.95;59.40;;;23.90;50.90;;;;;;6155079;28;83132;-61
2023/12/21 13:57:38;;;;;;;84.82;57.47;;;23.90;49.90;;;;;;6156674;28;83777;-61
2023/12/21 14:00:38;;;;;;;81.93;51.92;;;23.80;49.70;;;;;;6158973;28;83878;-61
2023/12/21 14:03:39;;;;;;;70.80;47.97;;;23.80;49.40;;;;;;6169103;28;87134;-58
2023/12/21 14:06:39;;;;;;;68.50;47.85;;;23.80;49.50;;;;;;6163056;28;83214;-60
2023/12/21 14:09:40;;;;;;;68.20;44.85;;;23.80;49.60;;;;;;6159958;28;83324;-58
2023/12/21 14:12:40;;;;;;;62.20;40.85;;;23.80;49.10;;;;;;6163764;28;83373;-58
2023/12/21 14:15:41;;;;;;;60.22;39.95;;;23.80;49.30;;;;;;6169391;28;84354;-57
2023/12/21 14:18:42;;;;;;;54.90;36.75;;;23.80;49.10;;;;;;6168843;28;83586;-60
2023/12/21 14:21:42;;;;;;;49.95;35.08;;;23.80;48.70;;;;;;6165443;28;83163;-60
2023/12/21 14:24:42;;;;;;;49.55;33.70;;;23.80;49.10;;;;;;6164057;28;84400;-59
2023/12/21 14:27:44;;;;;;;51.55;32.42;;;23.80;48.90;;;;;;6164827;28;84093;-59
2023/12/21 14:30:45;;;;;;;44.67;28.83;;;23.80;48.80;;;;;;6167685;28;84284;-56
2023/12/21 14:33:46;;;;;;;39.92;27.42;;;23.80;48.60;;;;;;6156797;28;83771;-54
2023/12/21 14:36:46;;;;;;;36.88;24.83;;;23.80;48.20;;;;;;6150879;28;83616;-60
2023/12/21 14:39:47;;;;;;;38.10;24.50;;;23.80;48.80;;;;;;6164331;28;83254;-60
2023/12/21 14:42:47;;;;;;;31.45;21.25;;;23.80;48.60;;;;;;6161966;28;87642;-59
2023/12/21 14:45:48;;;;;;;32.50;19.13;;;23.70;48.10;;;;;;6171047;28;83187;-59
2023/12/21 14:48:48;;;;;;;29.35;18.67;;;23.70;48.80;;;;;;6171187;28;83710;-60
2023/12/21 14:51:49;;;;;;;27.85;19.05;;;23.70;48.70;;;;;;6167328;28;84503;-58
2023/12/21 14:54:49;;;;;;;35.97;20.63;;;23.70;48.40;;;;;;6173821;28;85225;-59
2023/12/21 14:57:50;;;;;;;45.70;23.77;;;23.70;48.60;;;;;;6172785;28;83282;-59
2023/12/21 15:00:50;;;;;;;83.78;46.30;;;23.70;48.60;;;;;;6174100;28;83643;-56
2023/12/21 15:03:51;;;;;;;183.23;97.18;;;23.80;48.60;;;;;;6173123;28;85180;-58
2023/12/21 15:06:51;;;;;;;200.93;103.10;;;23.70;48.00;;;;;;6165300;28;83259;-58
2023/12/21 15:09:53;;;;;;;211.38;108.38;;;23.70;47.50;;;;;;6171799;28;85608;-57
2023/12/21 15:12:53;;;;;;;216.68;115.68;;;23.70;48.40;;;;;;6168167;28;85713;-59
2023/12/21 15:15:54;;;;;;;238.30;123.63;;;23.70;47.90;;;;;;6170327;28;85793;-59
2023/12/21 15:18:54;;;;;;;264.60;140.13;;;23.70;47.70;;;;;;6168078;28;85812;-55
2023/12/21 15:21:55;;;;;;;284.65;142.63;;;23.80;47.50;;;;;;6168906;28;85708;-56
2023/12/21 15:24:55;;;;;;;289.52;149.15;;;23.80;47.40;;;;;;6165505;28;85872;-52
2023/12/21 15:27:56;;;;;;;355.50;171.23;;;23.80;47.20;;;;;;6162731;28;85699;-53
2023/12/21 15:30:56;;;;;;;291.85;147.30;;;23.80;47.20;;;;;;6159517;28;85881;-57